createdAt,value
2019-02-12T00:02:25.493Z,100864.00
2019-02-12T00:04:52.986Z,100868.43
2019-02-12T00:07:20.463Z,100871.48
2019-02-12T00:09:48.471Z,100875.42
2019-02-12T00:12:15.975Z,100871.66
2019-02-12T00:14:43.463Z,100882.73
2019-02-12T00:17:10.936Z,100879.59
2019-02-12T00:19:38.479Z,100886.61
2019-02-12T00:22:05.957Z,100884.78
2019-02-12T00:24:33.498Z,100889.61
2019-02-12T00:27:00.951Z,100888.00
2019-02-12T00:29:28.462Z,100895.39
2019-02-12T00:31:55.960Z,100892.62
2019-02-12T00:34:23.425Z,100894.33
2019-02-12T00:36:50.868Z,100891.66
2019-02-12T00:39:19.182Z,100901.66
2019-02-12T00:41:46.663Z,100898.27
2019-02-12T00:44:14.220Z,100897.97
2019-02-12T00:46:41.654Z,100905.17
2019-02-12T00:49:09.131Z,100902.80
2019-02-12T00:51:36.664Z,100897.50
2019-02-12T00:54:04.106Z,100899.34
2019-02-12T00:56:31.612Z,100893.02
2019-02-12T00:58:59.073Z,100896.80
2019-02-12T01:01:26.578Z,100898.90
2019-02-12T01:03:54.033Z,100900.60
2019-02-12T01:06:21.489Z,100896.62
2019-02-12T01:08:49.746Z,100897.94
2019-02-12T01:11:17.213Z,100895.58
2019-02-12T01:13:44.758Z,100904.68
2019-02-12T01:16:12.180Z,100897.94
2019-02-12T01:18:39.642Z,100888.40
2019-02-12T01:21:07.121Z,100893.19
2019-02-12T01:23:34.616Z,100900.85
2019-02-12T01:26:02.111Z,100895.63
2019-02-12T01:28:29.594Z,100894.73
2019-02-12T01:30:57.118Z,100897.29
2019-02-12T01:33:24.582Z,100903.39
2019-02-12T01:35:52.102Z,100905.77
2019-02-12T01:38:20.241Z,100904.20
2019-02-12T01:40:47.751Z,100906.74
2019-02-12T01:43:15.220Z,100908.18
2019-02-12T01:45:42.756Z,100906.77
2019-02-12T01:48:10.212Z,100909.39
2019-02-12T01:50:37.682Z,100918.80
2019-02-12T01:53:05.168Z,100915.41
2019-02-12T01:55:32.690Z,100917.84
2019-02-12T01:58:00.194Z,100926.53
2019-02-12T02:00:27.615Z,100922.47
2019-02-12T02:02:55.158Z,100924.97
2019-02-12T02:05:22.623Z,100926.36
2019-02-12T02:07:50.814Z,100923.45
2019-02-12T02:10:18.301Z,100917.25
2019-02-12T02:12:45.784Z,100928.83
2019-02-12T02:15:13.282Z,100926.41
2019-02-12T02:17:40.747Z,100927.59
2019-02-12T02:20:09.655Z,100933.36
2019-02-12T02:22:37.201Z,100924.15
2019-02-12T02:25:04.728Z,100927.95
2019-02-12T02:27:32.190Z,100925.42
2019-02-12T02:29:59.670Z,100927.95
2019-02-12T02:32:27.161Z,100927.20
2019-02-12T02:34:54.646Z,100925.52
2019-02-12T02:37:22.117Z,100937.45
2019-02-12T02:39:49.584Z,100936.14
2019-02-12T02:42:17.063Z,100931.11
2019-02-12T02:44:44.517Z,100927.67
2019-02-12T02:47:11.987Z,100935.88
2019-02-12T02:49:39.455Z,100934.27
2019-02-12T02:52:06.960Z,100933.00
2019-02-12T02:54:34.421Z,100935.16
2019-02-12T02:57:02.019Z,100940.39
2019-02-12T02:59:29.489Z,100941.20
2019-02-12T03:01:57.001Z,100933.67
2019-02-12T03:04:24.484Z,100942.89
2019-02-12T03:06:52.225Z,100940.62
2019-02-12T03:09:19.706Z,100945.85
2019-02-12T03:11:47.181Z,100946.83
2019-02-12T03:14:14.634Z,100947.52
2019-02-12T03:16:42.143Z,100947.95
2019-02-12T03:19:09.588Z,100955.29
2019-02-12T03:21:37.110Z,100952.47
2019-02-12T03:24:04.577Z,100955.30
2019-02-12T03:26:32.056Z,100960.72
2019-02-12T03:28:59.557Z,100961.56
2019-02-12T03:31:27.094Z,100955.87
2019-02-12T03:33:54.585Z,100963.28
2019-02-12T03:36:22.744Z,100967.28
2019-02-12T03:38:50.192Z,100967.03
2019-02-12T03:41:17.620Z,100969.42
2019-02-12T03:43:45.090Z,100973.84
2019-02-12T03:46:12.543Z,100976.33
2019-02-12T03:48:40.009Z,100970.30
2019-02-12T03:51:07.451Z,100969.67
2019-02-12T03:53:34.904Z,100970.08
2019-02-12T03:56:02.402Z,100970.16
2019-02-12T03:58:29.870Z,100971.99
2019-02-12T04:00:57.322Z,100979.31
2019-02-12T04:03:24.806Z,100975.11
2019-02-12T04:05:52.296Z,100968.89
2019-02-12T04:08:19.747Z,100979.94
2019-02-12T04:10:47.245Z,100984.53
2019-02-12T04:13:14.776Z,100976.91
2019-02-12T04:15:42.308Z,100970.88
2019-02-12T04:18:09.773Z,100965.73
2019-02-12T04:20:37.273Z,100974.20
2019-02-12T04:23:04.762Z,100971.22
2019-02-12T04:25:32.280Z,100980.12
2019-02-12T04:27:59.769Z,100973.86
2019-02-12T04:30:27.263Z,100973.45
2019-02-12T04:32:54.777Z,100978.66
2019-02-12T04:35:22.237Z,100969.34
2019-02-12T04:37:49.705Z,100970.13
2019-02-12T04:40:17.186Z,100959.79
2019-02-12T04:42:44.714Z,100972.06
2019-02-12T04:45:12.178Z,100963.31
2019-02-12T04:47:39.658Z,100968.21
2019-02-12T04:50:09.904Z,100969.64
2019-02-12T04:52:37.471Z,100963.59
2019-02-12T04:55:06.196Z,100967.72
2019-02-12T04:57:32.494Z,100969.98
2019-02-12T04:59:59.951Z,100971.39
2019-02-12T05:02:27.417Z,100965.61
2019-02-12T05:04:54.890Z,100968.58
2019-02-12T05:07:22.382Z,100969.30
2019-02-12T05:09:49.845Z,100966.11
2019-02-12T05:12:18.421Z,100968.73
2019-02-12T05:14:45.970Z,100974.26
2019-02-12T05:17:13.488Z,100969.27
2019-02-12T05:19:40.984Z,100966.80
2019-02-12T05:22:08.483Z,100962.32
2019-02-12T05:24:35.953Z,100973.13
2019-02-12T05:27:03.411Z,100966.67
2019-02-12T05:29:30.886Z,100968.50
2019-02-12T05:31:58.336Z,100963.89
2019-02-12T05:34:25.847Z,100980.50
2019-02-12T05:36:53.367Z,100979.75
2019-02-12T05:39:20.844Z,100977.59
2019-02-12T05:41:48.315Z,100983.94
2019-02-12T05:44:15.775Z,100985.11
2019-02-12T05:46:44.236Z,100981.52
2019-02-12T05:49:11.817Z,100983.25
2019-02-12T05:51:39.314Z,100985.14
2019-02-12T05:54:06.833Z,100985.66
2019-02-12T05:56:34.353Z,100978.14
2019-02-12T05:59:01.842Z,100980.17
2019-02-12T06:01:29.316Z,100989.70
2019-02-12T06:03:56.771Z,100994.91
2019-02-12T06:06:24.238Z,100989.17
2019-02-12T06:08:51.704Z,100983.80
2019-02-12T06:11:19.225Z,100983.94
2019-02-12T06:13:46.659Z,100989.55
2019-02-12T06:16:14.119Z,100986.98
2019-02-12T06:18:41.615Z,100989.75
2019-02-12T06:21:09.096Z,100992.53
2019-02-12T06:23:36.560Z,100997.88
2019-02-12T06:26:04.032Z,100994.98
2019-02-12T06:28:31.513Z,100997.86
2019-02-12T06:30:59.006Z,100995.17
2019-02-12T06:33:26.439Z,101002.75
2019-02-12T06:35:53.967Z,101004.79
2019-02-12T06:38:21.462Z,101004.14
2019-02-12T06:40:48.921Z,101007.20
2019-02-12T06:43:16.357Z,101002.98
2019-02-12T06:45:43.857Z,101015.79
2019-02-12T06:48:11.332Z,101012.13
2019-02-12T06:50:38.836Z,101009.86
2019-02-12T06:53:12.584Z,101009.17
2019-02-12T06:55:34.976Z,101016.81
2019-02-12T06:58:02.420Z,101018.85
2019-02-12T07:00:29.900Z,101027.55
2019-02-12T07:03:09.077Z,101025.55
2019-02-12T07:05:36.558Z,101036.02
2019-02-12T07:08:20.556Z,101045.08
2019-02-12T07:10:48.047Z,101054.94
2019-02-12T07:13:19.142Z,101058.44
2019-02-12T07:15:46.607Z,101055.59
2019-02-12T07:18:32.476Z,101055.23
2019-02-12T07:21:13.651Z,101064.08
2019-02-12T07:26:55.434Z,101072.93
2019-02-12T07:32:47.301Z,101070.36
2019-02-12T07:35:19.091Z,101079.35
2019-02-12T07:37:50.978Z,101079.38
2019-02-12T07:40:18.510Z,101088.49
2019-02-12T07:42:54.299Z,101089.75
2019-02-12T07:45:29.410Z,101099.84
2019-02-12T07:48:05.591Z,101100.73
2019-02-12T07:50:36.531Z,101102.69
2019-02-12T07:53:17.727Z,101103.86
2019-02-12T07:55:45.201Z,101117.85
2019-02-12T07:58:26.366Z,101120.50
2019-02-12T08:00:55.255Z,101129.39
2019-02-12T08:03:44.053Z,101128.80
2019-02-12T08:06:12.335Z,101135.61
2019-02-12T08:09:09.378Z,101138.36
2019-02-12T08:11:38.325Z,101148.27
2019-02-12T08:14:23.352Z,101150.47
2019-02-12T08:17:13.582Z,101156.51
2019-02-12T08:19:58.081Z,101158.54
2019-02-12T08:22:44.228Z,101148.53
2019-02-12T08:25:31.274Z,101155.95
2019-02-12T08:28:04.089Z,101159.78
2019-02-12T08:30:35.163Z,101160.97
2019-02-12T08:33:19.350Z,101158.70
2019-02-12T08:35:57.016Z,101162.31
2019-02-12T08:38:38.214Z,101164.52
2019-02-12T08:41:05.687Z,101160.07
2019-02-12T08:43:54.745Z,101161.18
2019-02-12T08:46:48.885Z,101163.66
2019-02-12T08:49:22.132Z,101160.42
2019-02-12T08:51:57.166Z,101167.61
2019-02-12T08:54:32.103Z,101167.61
2019-02-12T08:57:05.072Z,101163.98
2019-02-12T08:59:33.220Z,101162.98
2019-02-12T09:02:10.624Z,101163.27
2019-02-12T09:04:54.676Z,101176.44
2019-02-12T09:07:40.860Z,101173.54
2019-02-12T09:10:14.798Z,101179.44
2019-02-12T09:13:00.728Z,101174.06
2019-02-12T09:15:45.912Z,101178.33
2019-02-12T09:18:34.155Z,101187.56
2019-02-12T09:21:19.082Z,101189.20
2019-02-12T09:24:03.638Z,101194.08
2019-02-12T09:26:49.680Z,101193.09
2019-02-12T09:29:22.675Z,101199.23
2019-02-12T09:32:08.721Z,101197.54
2019-02-12T09:34:47.860Z,101193.89
2019-02-12T09:37:27.024Z,101191.38
2019-02-12T09:40:01.358Z,101194.16
2019-02-12T09:42:42.643Z,101192.45
2019-02-12T09:45:14.755Z,101203.90
2019-02-12T09:47:47.640Z,101197.97
2019-02-12T09:50:16.554Z,101202.59
2019-02-12T09:53:10.568Z,101208.84
2019-02-12T09:56:01.621Z,101202.95
2019-02-12T09:58:32.756Z,101208.59
2019-02-12T10:01:00.221Z,101216.68
2019-02-12T10:03:44.950Z,101210.76
2019-02-12T10:06:29.309Z,101206.58
2019-02-12T10:09:03.163Z,101211.31
2019-02-12T10:11:30.652Z,101202.17
2019-02-12T10:14:16.798Z,101204.09
2019-02-12T10:16:45.091Z,101202.64
2019-02-12T10:19:23.456Z,101209.84
2019-02-12T10:22:01.742Z,101212.38
2019-02-12T10:24:35.612Z,101212.94
2019-02-12T10:27:27.564Z,101218.85
2019-02-12T10:30:06.620Z,101218.28
2019-02-12T10:32:33.505Z,101215.57
2019-02-12T10:35:01.000Z,101215.24
2019-02-12T10:37:28.450Z,101216.40
2019-02-12T10:39:55.918Z,101223.45
2019-02-12T10:42:23.375Z,101213.86
2019-02-12T10:44:50.858Z,101220.88
2019-02-12T10:47:18.353Z,101225.52
2019-02-12T10:49:45.800Z,101217.72
2019-02-12T10:52:13.292Z,101216.24
2019-02-12T10:54:40.768Z,101211.05
2019-02-12T10:57:08.254Z,101203.00
2019-02-12T10:59:35.717Z,101203.08
2019-02-12T11:02:03.175Z,101207.62
2019-02-12T11:04:30.660Z,101208.12
2019-02-12T11:06:58.099Z,101205.59
2019-02-12T11:09:25.578Z,101202.74
2019-02-12T11:11:53.057Z,101201.83
2019-02-12T11:14:20.596Z,101196.08
2019-02-12T11:16:48.037Z,101203.84
2019-02-12T11:19:15.522Z,101197.95
2019-02-12T11:21:42.984Z,101198.45
2019-02-12T11:24:10.451Z,101195.05
2019-02-12T11:26:37.879Z,101198.71
2019-02-12T11:29:05.339Z,101194.50
2019-02-12T11:31:32.828Z,101196.84
2019-02-12T11:34:00.282Z,101199.48
2019-02-12T11:36:27.782Z,101203.95
2019-02-12T11:38:55.232Z,101205.11
2019-02-12T11:41:22.715Z,101206.91
2019-02-12T11:43:50.145Z,101202.27
2019-02-12T11:46:17.629Z,101196.77
2019-02-12T11:48:45.086Z,101192.89
2019-02-12T11:51:12.549Z,101194.17
2019-02-12T11:53:40.031Z,101200.66
2019-02-12T11:56:07.501Z,101192.63
2019-02-12T11:58:34.980Z,101189.03
2019-02-12T12:01:02.501Z,101195.89
2019-02-12T12:03:29.982Z,101194.31
2019-02-12T12:05:57.455Z,101198.63
2019-02-12T12:08:24.941Z,101195.35
2019-02-12T12:10:52.442Z,101192.33
2019-02-12T12:13:19.914Z,101193.73
2019-02-12T12:15:47.363Z,101196.73
2019-02-12T12:18:14.850Z,101201.30
2019-02-12T12:20:42.277Z,101189.16
2019-02-12T12:23:10.440Z,101188.22
2019-02-12T12:25:38.102Z,101195.89
2019-02-12T12:28:05.545Z,101186.79
2019-02-12T12:30:32.979Z,101189.55
2019-02-12T12:33:00.480Z,101186.75
2019-02-12T12:35:27.932Z,101188.72
2019-02-12T12:37:55.404Z,101189.31
2019-02-12T12:40:22.855Z,101190.61
2019-02-12T12:42:50.351Z,101184.41
2019-02-12T12:45:18.790Z,101185.55
2019-02-12T12:47:46.307Z,101189.86
2019-02-12T12:50:13.762Z,101199.92
2019-02-12T12:52:42.218Z,101203.07
2019-02-12T12:55:09.682Z,101196.09
2019-02-12T12:57:41.836Z,101191.55
2019-02-12T13:00:07.459Z,101193.92
2019-02-12T13:02:34.943Z,101189.13
2019-02-12T13:05:02.778Z,101193.00
2019-02-12T13:07:29.900Z,101193.61
2019-02-12T13:09:57.377Z,101194.86
2019-02-12T13:12:24.889Z,101191.75
2019-02-12T13:14:52.355Z,101194.72
2019-02-12T13:17:19.882Z,101188.22
2019-02-12T13:19:47.357Z,101189.91
2019-02-12T13:22:14.845Z,101189.67
2019-02-12T13:24:42.345Z,101188.47
2019-02-12T13:27:10.518Z,101190.55
2019-02-12T13:29:37.959Z,101192.58
2019-02-12T13:32:05.434Z,101188.56
2019-02-12T13:34:32.882Z,101197.16
2019-02-12T13:37:00.362Z,101198.39
2019-02-12T13:39:27.838Z,101192.58
2019-02-12T13:41:55.355Z,101201.44
2019-02-12T13:44:22.827Z,101200.23
2019-02-12T13:46:50.284Z,101201.28
2019-02-12T13:49:17.775Z,101204.13
2019-02-12T13:51:45.249Z,101194.67
2019-02-12T13:54:12.727Z,101202.87
2019-02-12T13:56:40.208Z,101196.59
2019-02-12T13:59:07.665Z,101194.34
2019-02-12T14:01:35.086Z,101193.31
2019-02-12T14:04:03.717Z,101197.95
2019-02-12T14:06:30.038Z,101194.56
2019-02-12T14:08:57.639Z,101188.80
2019-02-12T14:11:25.087Z,101191.31
2019-02-12T14:13:52.534Z,101196.59
2019-02-12T14:16:19.992Z,101199.47
2019-02-12T14:18:47.498Z,101194.72
2019-02-12T14:21:14.957Z,101201.72
2019-02-12T14:23:43.000Z,101213.64
2019-02-12T14:26:10.495Z,101200.24
2019-02-12T14:28:37.945Z,101203.16
2019-02-12T14:31:05.419Z,101197.16
2019-02-12T14:33:32.858Z,101187.94
2019-02-12T14:36:00.353Z,101197.77
2019-02-12T14:38:27.829Z,101200.38
2019-02-12T14:40:55.321Z,101199.02
2019-02-12T14:43:22.826Z,101199.10
2019-02-12T14:45:50.348Z,101193.42
2019-02-12T14:48:17.788Z,101200.76
2019-02-12T14:50:45.230Z,101190.58
2019-02-12T14:53:13.480Z,101185.73
2019-02-12T14:55:40.956Z,101188.13
2019-02-12T14:58:08.442Z,101183.81
2019-02-12T15:00:35.899Z,101183.41
2019-02-12T15:03:03.339Z,101180.84
2019-02-12T15:05:30.833Z,101183.91
2019-02-12T15:07:58.315Z,101189.05
2019-02-12T15:10:25.748Z,101191.28
2019-02-12T15:12:53.241Z,101193.19
2019-02-12T15:15:20.738Z,101187.09
2019-02-12T15:17:48.214Z,101188.07
2019-02-12T15:20:15.672Z,101183.09
2019-02-12T15:22:43.149Z,101174.36
2019-02-12T15:25:12.426Z,101182.23
2019-02-12T15:27:39.882Z,101181.97
2019-02-12T15:30:09.129Z,101186.46
2019-02-12T15:32:36.561Z,101185.64
2019-02-12T15:35:04.049Z,101189.45
2019-02-12T15:37:31.512Z,101195.33
2019-02-12T15:39:58.998Z,101200.45
2019-02-12T15:42:26.445Z,101199.31
2019-02-12T15:44:53.908Z,101205.72
2019-02-12T15:47:21.363Z,101203.09
2019-02-12T15:49:48.831Z,101206.45
2019-02-12T15:52:16.308Z,101202.23
2019-02-12T15:54:44.818Z,101205.81
2019-02-12T15:57:12.263Z,101199.66
2019-02-12T15:59:39.690Z,101196.82
2019-02-12T16:02:07.133Z,101196.27
2019-02-12T16:04:34.578Z,101202.31
2019-02-12T16:07:02.027Z,101196.83
2019-02-12T16:09:31.146Z,101202.02
2019-02-12T16:11:56.936Z,101203.42
2019-02-12T16:14:24.421Z,101197.22
2019-02-12T16:16:53.888Z,101206.07
2019-02-12T16:19:19.359Z,101203.52
2019-02-12T16:21:46.851Z,101198.38
2019-02-12T16:24:14.347Z,101207.14
2019-02-12T16:26:41.832Z,101201.30
2019-02-12T16:29:09.344Z,101213.77
2019-02-12T16:31:36.778Z,101209.96
2019-02-12T16:34:04.270Z,101217.28
2019-02-12T16:36:34.516Z,101216.77
2019-02-12T16:39:01.952Z,101224.13
2019-02-12T16:41:29.420Z,101227.91
2019-02-12T16:43:56.885Z,101222.38
2019-02-12T16:46:24.418Z,101231.84
2019-02-12T16:48:51.892Z,101234.36
2019-02-12T16:51:19.382Z,101235.89
2019-02-12T16:53:46.865Z,101235.80
2019-02-12T16:56:14.355Z,101238.06
2019-02-12T16:58:41.802Z,101238.65
2019-02-12T17:01:09.317Z,101231.53
2019-02-12T17:03:36.803Z,101247.27
2019-02-12T17:06:04.269Z,101245.14
2019-02-12T17:08:31.729Z,101249.68
2019-02-12T17:10:59.182Z,101250.59
2019-02-12T17:13:26.643Z,101257.81
2019-02-12T17:15:54.162Z,101254.26
2019-02-12T17:18:21.671Z,101262.06
2019-02-12T17:20:49.466Z,101264.37
2019-02-12T17:23:16.947Z,101268.41
2019-02-12T17:25:44.424Z,101266.69
2019-02-12T17:28:11.911Z,101270.02
2019-02-12T17:30:39.363Z,101275.67
2019-02-12T17:33:06.811Z,101274.86
2019-02-12T17:35:34.260Z,101280.50
2019-02-12T17:38:01.704Z,101276.17
2019-02-12T17:40:29.163Z,101277.41
2019-02-12T17:42:57.541Z,101279.41
2019-02-12T17:45:24.980Z,101278.13
2019-02-12T17:47:52.446Z,101274.22
2019-02-12T17:50:19.923Z,101279.73
2019-02-12T17:52:47.431Z,101280.85
2019-02-12T17:55:14.893Z,101286.30
2019-02-12T17:57:42.363Z,101288.68
2019-02-12T18:00:11.599Z,101286.36
2019-02-12T18:02:39.143Z,101289.08
2019-02-12T18:05:06.622Z,101284.31
2019-02-12T18:07:34.109Z,101290.18
2019-02-12T18:10:01.568Z,101282.95
2019-02-12T18:12:29.081Z,101285.86
2019-02-12T18:14:56.550Z,101284.53
2019-02-12T18:17:24.012Z,101280.72
2019-02-12T18:19:51.463Z,101293.08
2019-02-12T18:22:18.934Z,101287.89
2019-02-12T18:24:46.434Z,101281.13
2019-02-12T18:27:14.907Z,101276.70
2019-02-12T18:29:42.457Z,101281.82
2019-02-12T18:32:09.911Z,101278.41
2019-02-12T18:34:37.359Z,101273.93
2019-02-12T18:37:04.880Z,101279.59
2019-02-12T18:39:32.315Z,101280.80
2019-02-12T18:41:59.772Z,101284.80
2019-02-12T18:44:27.235Z,101283.36
2019-02-12T18:46:54.738Z,101280.66
2019-02-12T18:49:22.220Z,101277.06
2019-02-12T18:51:49.700Z,101268.99
2019-02-12T18:54:17.175Z,101269.08
2019-02-12T18:56:44.623Z,101275.67
2019-02-12T18:59:12.079Z,101271.48
2019-02-12T19:01:39.535Z,101274.49
2019-02-12T19:04:07.027Z,101276.87
2019-02-12T19:06:34.499Z,101268.03
2019-02-12T19:09:01.953Z,101265.46
2019-02-12T19:11:29.475Z,101267.30
2019-02-12T19:13:56.939Z,101270.83
2019-02-12T19:16:24.424Z,101270.09
2019-02-12T19:18:51.886Z,101267.71
2019-02-12T19:21:19.337Z,101262.14
2019-02-12T19:23:47.653Z,101258.33
2019-02-12T19:26:15.266Z,101256.03
2019-02-12T19:28:42.706Z,101254.72
2019-02-12T19:31:10.165Z,101261.64
2019-02-12T19:33:37.643Z,101266.20
2019-02-12T19:36:05.125Z,101268.89
2019-02-12T19:38:32.626Z,101268.49
2019-02-12T19:41:00.082Z,101272.59
2019-02-12T19:43:27.533Z,101280.03
2019-02-12T19:45:55.042Z,101272.62
2019-02-12T19:48:22.506Z,101281.13
2019-02-12T19:50:49.967Z,101281.90
2019-02-12T19:53:17.471Z,101279.00
2019-02-12T19:55:44.961Z,101282.89
2019-02-12T19:58:12.401Z,101295.55
2019-02-12T20:00:39.890Z,101299.52
2019-02-12T20:03:07.336Z,101295.50
2019-02-12T20:05:34.798Z,101296.59
2019-02-12T20:08:02.310Z,101289.52
2019-02-12T20:10:29.745Z,101290.06
2019-02-12T20:12:57.224Z,101298.45
2019-02-12T20:15:24.655Z,101295.89
2019-02-12T20:17:52.124Z,101298.45
2019-02-12T20:20:20.204Z,101299.45
2019-02-12T20:22:47.681Z,101302.38
2019-02-12T20:25:15.142Z,101300.38
2019-02-12T20:27:42.582Z,101287.46
2019-02-12T20:30:12.707Z,101281.98
2019-02-12T20:32:40.194Z,101278.84
2019-02-12T20:35:07.715Z,101277.49
2019-02-12T20:37:35.205Z,101284.45
2019-02-12T20:40:02.684Z,101282.73
2019-02-12T20:42:31.663Z,101285.44
2019-02-12T20:44:59.156Z,101274.01
2019-02-12T20:47:26.627Z,101267.86
2019-02-12T20:49:54.093Z,101261.06
2019-02-12T20:52:21.507Z,101270.22
2019-02-12T20:54:48.957Z,101273.74
2019-02-12T20:57:16.442Z,101270.94
2019-02-12T20:59:43.922Z,101259.88
2019-02-12T21:02:11.392Z,101273.54
2019-02-12T21:04:38.860Z,101276.34
2019-02-12T21:07:06.331Z,101285.77
2019-02-12T21:09:34.504Z,101290.34
2019-02-12T21:12:02.087Z,101300.34
2019-02-12T21:14:29.578Z,101301.36
2019-02-12T21:16:57.031Z,101305.16
2019-02-12T21:19:24.523Z,101310.55
2019-02-12T21:21:52.029Z,101301.26
2019-02-12T21:24:19.525Z,101304.13
2019-02-12T21:26:47.005Z,101291.45
2019-02-12T21:29:14.460Z,101290.13
2019-02-12T21:31:41.938Z,101301.41
2019-02-12T21:34:09.483Z,101289.78
2019-02-12T21:36:36.957Z,101295.59
2019-02-12T21:39:04.387Z,101290.64
2019-02-12T21:41:31.850Z,101296.71
2019-02-12T21:43:59.328Z,101299.15
2019-02-12T21:46:26.816Z,101298.25
2019-02-12T21:48:54.298Z,101299.93
2019-02-12T21:51:21.968Z,101305.69
2019-02-12T21:53:49.435Z,101311.05
2019-02-12T21:56:16.891Z,101316.39
2019-02-12T21:58:44.481Z,101315.22
2019-02-12T22:01:11.975Z,101318.08
2019-02-12T22:03:39.504Z,101315.66
2019-02-12T22:06:06.946Z,101333.25
2019-02-12T22:08:34.401Z,101328.42
2019-02-12T22:11:01.874Z,101337.84
2019-02-12T22:13:29.348Z,101340.45
2019-02-12T22:15:56.839Z,101343.45
2019-02-12T22:18:24.303Z,101346.56
2019-02-12T22:20:52.529Z,101346.97
2019-02-12T22:23:20.013Z,101342.45
2019-02-12T22:25:47.535Z,101340.98
2019-02-12T22:28:15.015Z,101336.06
2019-02-12T22:30:42.509Z,101330.16
2019-02-12T22:33:10.024Z,101340.31
2019-02-12T22:35:37.489Z,101342.83
2019-02-12T22:38:04.990Z,101355.19
2019-02-12T22:40:32.464Z,101353.19
2019-02-12T22:42:59.952Z,101355.00
2019-02-12T22:45:27.452Z,101356.88
2019-02-12T22:47:54.906Z,101353.66
2019-02-12T22:50:23.072Z,101347.56
2019-02-12T22:52:50.553Z,101356.79
2019-02-12T22:55:18.819Z,101355.87
2019-02-12T22:57:49.200Z,101354.12
2019-02-12T23:00:46.964Z,101347.22
2019-02-12T23:03:14.424Z,101357.55
2019-02-12T23:05:41.905Z,101357.02
2019-02-12T23:08:09.392Z,101359.14
2019-02-12T23:10:36.829Z,101350.42
2019-02-12T23:13:04.341Z,101343.05
2019-02-12T23:15:31.789Z,101347.78
2019-02-12T23:18:01.291Z,101352.98
2019-02-12T23:20:28.743Z,101351.20
2019-02-12T23:22:56.257Z,101349.03
2019-02-12T23:25:23.923Z,101357.52
2019-02-12T23:27:57.206Z,101349.28
2019-02-12T23:30:18.902Z,101351.17
2019-02-12T23:32:46.404Z,101362.56
2019-02-12T23:35:13.937Z,101358.90
2019-02-12T23:37:41.409Z,101359.37
2019-02-12T23:40:08.949Z,101370.98
2019-02-12T23:42:36.463Z,101370.39
2019-02-12T23:45:04.584Z,101365.82
2019-02-12T23:47:32.111Z,101367.55
2019-02-12T23:49:59.578Z,101375.61
2019-02-12T23:52:27.031Z,101379.79
2019-02-12T23:54:54.555Z,101368.32
2019-02-12T23:57:22.014Z,101365.98
2019-02-12T23:59:49.509Z,101365.57
